createdAt,value
2018-01-13T00:00:23.720Z,30.25
2018-01-13T00:02:50.597Z,30.58
2018-01-13T00:05:17.409Z,30.62
2018-01-13T00:07:44.501Z,30.65
2018-01-13T00:10:11.345Z,31.45
2018-01-13T00:12:38.501Z,32.95
2018-01-13T00:15:05.651Z,31.73
2018-01-13T00:17:32.501Z,30.98
2018-01-13T00:19:59.346Z,32.15
2018-01-13T00:22:32.525Z,33.05
2018-01-13T00:24:59.382Z,32.30
2018-01-13T00:27:26.517Z,31.45
2018-01-13T00:29:53.665Z,32.10
2018-01-13T00:32:20.511Z,32.97
2018-01-13T00:34:47.388Z,32.20
2018-01-13T00:37:14.217Z,32.42
2018-01-13T00:39:41.029Z,32.10
2018-01-13T00:42:07.947Z,32.63
2018-01-13T00:44:34.798Z,34.13
2018-01-13T00:47:01.650Z,33.67
2018-01-13T00:49:28.499Z,34.25
2018-01-13T00:51:55.675Z,32.70
2018-01-13T00:54:22.519Z,35.20
2018-01-13T00:56:49.341Z,34.55
2018-01-13T00:59:16.512Z,35.00
2018-01-13T01:01:43.654Z,35.00
2018-01-13T01:04:10.469Z,35.40
2018-01-13T01:06:37.310Z,35.73
2018-01-13T01:09:04.494Z,36.13
2018-01-13T01:11:31.354Z,34.95
2018-01-13T01:13:58.222Z,36.00
2018-01-13T01:16:25.062Z,37.28
2018-01-13T01:18:51.873Z,35.77
2018-01-13T01:21:18.756Z,35.97
2018-01-13T01:23:45.577Z,36.67
2018-01-13T01:26:12.422Z,37.45
2018-01-13T01:28:39.546Z,36.60
2018-01-13T01:31:06.600Z,36.90
2018-01-13T01:33:33.747Z,39.08
2018-01-13T01:36:00.594Z,37.78
2018-01-13T01:38:27.417Z,39.13
2018-01-13T01:40:54.274Z,38.25
2018-01-13T01:43:21.420Z,37.13
2018-01-13T01:45:48.287Z,38.17
2018-01-13T01:48:21.064Z,37.70
2018-01-13T01:50:47.894Z,38.63
2018-01-13T01:53:14.717Z,38.83
2018-01-13T01:55:41.594Z,38.83
2018-01-13T01:58:08.409Z,39.45
2018-01-13T02:00:35.569Z,39.70
2018-01-13T02:03:02.725Z,39.15
2018-01-13T02:05:29.875Z,39.30
2018-01-13T02:07:56.714Z,38.30
2018-01-13T02:10:23.563Z,37.83
2018-01-13T02:12:50.414Z,37.97
2018-01-13T02:15:17.278Z,36.90
2018-01-13T02:17:44.392Z,36.95
2018-01-13T02:20:11.541Z,34.85
2018-01-13T02:22:38.389Z,34.08
2018-01-13T02:25:05.254Z,34.33
2018-01-13T02:27:32.122Z,33.80
2018-01-13T02:29:58.937Z,34.42
2018-01-13T02:32:26.061Z,34.08
2018-01-13T02:34:52.898Z,35.38
2018-01-13T02:37:19.755Z,34.60
2018-01-13T02:39:46.628Z,35.30
2018-01-13T02:42:13.745Z,36.28
2018-01-13T02:44:40.621Z,36.05
2018-01-13T02:47:07.470Z,36.17
2018-01-13T02:49:34.273Z,36.70
2018-01-13T02:52:01.119Z,39.85
2018-01-13T02:54:27.957Z,40.35
2018-01-13T02:56:55.005Z,39.97
2018-01-13T02:59:22.158Z,41.80
2018-01-13T03:01:49.017Z,39.83
2018-01-13T03:04:15.841Z,42.10
2018-01-13T03:06:42.997Z,41.65
2018-01-13T03:09:09.875Z,39.70
2018-01-13T03:11:36.726Z,40.38
2018-01-13T03:14:03.838Z,39.60
2018-01-13T03:16:30.706Z,40.03
2018-01-13T03:18:57.551Z,37.95
2018-01-13T03:21:24.361Z,40.53
2018-01-13T03:23:51.238Z,39.17
2018-01-13T03:26:18.095Z,37.15
2018-01-13T03:28:44.908Z,35.30
2018-01-13T03:31:11.765Z,34.63
2018-01-13T03:33:38.890Z,35.17
2018-01-13T03:36:06.032Z,33.80
2018-01-13T03:38:32.908Z,35.40
2018-01-13T03:40:59.742Z,34.85
2018-01-13T03:43:26.578Z,33.53
2018-01-13T03:45:53.442Z,32.20
2018-01-13T03:48:20.278Z,33.60
2018-01-13T03:50:47.401Z,34.53
2018-01-13T03:53:14.254Z,34.17
2018-01-13T03:55:41.066Z,33.53
2018-01-13T03:58:07.907Z,34.50
2018-01-13T04:00:34.762Z,35.38
2018-01-13T04:03:01.609Z,34.55
2018-01-13T04:05:28.449Z,34.72
2018-01-13T04:07:55.609Z,34.60
2018-01-13T04:10:22.762Z,34.20
2018-01-13T04:12:49.576Z,33.70
2018-01-13T04:15:16.438Z,32.53
2018-01-13T04:17:43.279Z,34.53
2018-01-13T04:20:10.081Z,34.90
2018-01-13T04:22:37.184Z,36.75
2018-01-13T04:25:03.989Z,34.15
2018-01-13T04:27:30.797Z,33.23
2018-01-13T04:29:57.658Z,33.87
2018-01-13T04:32:24.762Z,34.78
2018-01-13T04:34:51.601Z,34.58
2018-01-13T04:37:18.429Z,34.50
2018-01-13T04:39:45.254Z,34.70
2018-01-13T04:42:12.099Z,34.23
2018-01-13T04:44:38.925Z,35.47
2018-01-13T04:47:06.030Z,34.67
2018-01-13T04:49:32.874Z,36.77
2018-01-13T04:51:59.743Z,35.47
2018-01-13T04:54:26.578Z,36.60
2018-01-13T04:56:53.706Z,36.20
2018-01-13T04:59:20.541Z,36.17
2018-01-13T05:01:47.355Z,37.47
2018-01-13T05:04:14.167Z,36.50
2018-01-13T05:06:41.024Z,35.80
2018-01-13T05:09:08.057Z,34.63
2018-01-13T05:11:34.905Z,34.60
2018-01-13T05:14:01.737Z,35.20
2018-01-13T05:16:28.857Z,36.20
2018-01-13T05:18:55.699Z,33.72
2018-01-13T05:21:22.541Z,33.77
2018-01-13T05:23:49.566Z,34.10
2018-01-13T05:26:16.406Z,34.30
2018-01-13T05:28:44.026Z,34.38
2018-01-13T05:31:10.878Z,34.67
2018-01-13T05:33:37.723Z,33.92
2018-01-13T05:36:04.828Z,34.10
2018-01-13T05:38:31.643Z,34.47
2018-01-13T05:40:58.479Z,33.80
2018-01-13T05:43:25.358Z,32.80
2018-01-13T05:45:52.156Z,34.65
2018-01-13T05:48:19.254Z,34.35
2018-01-13T05:50:46.085Z,34.00
2018-01-13T05:53:12.894Z,34.25
2018-01-13T05:55:39.711Z,30.90
2018-01-13T05:58:06.777Z,33.65
2018-01-13T06:00:33.882Z,32.53
2018-01-13T06:03:01.031Z,32.92
2018-01-13T06:05:28.178Z,34.00
2018-01-13T06:07:55.617Z,34.58
2018-01-13T06:10:22.421Z,33.35
2018-01-13T06:12:49.295Z,33.40
2018-01-13T06:15:16.174Z,33.50
2018-01-13T06:17:43.316Z,32.60
2018-01-13T06:20:10.466Z,34.22
2018-01-13T06:22:37.285Z,34.75
2018-01-13T06:25:04.108Z,35.10
2018-01-13T06:27:30.992Z,34.42
2018-01-13T06:29:57.842Z,38.00
2018-01-13T06:32:24.989Z,35.40
2018-01-13T06:34:51.862Z,33.75
2018-01-13T06:37:18.719Z,36.28
2018-01-13T06:39:45.534Z,34.65
2018-01-13T06:42:12.418Z,34.92
2018-01-13T06:44:39.514Z,35.72
2018-01-13T06:47:06.322Z,35.65
2018-01-13T06:49:33.197Z,35.33
2018-01-13T06:52:00.350Z,35.35
2018-01-13T06:54:27.502Z,35.97
2018-01-13T06:56:54.330Z,35.25
2018-01-13T06:59:21.178Z,32.95
2018-01-13T07:01:48.010Z,35.03
2018-01-13T07:04:15.107Z,35.23
2018-01-13T07:06:41.941Z,35.63
2018-01-13T07:09:09.126Z,35.38
2018-01-13T07:11:35.970Z,35.58
2018-01-13T07:14:02.830Z,35.00
2018-01-13T07:16:29.637Z,34.40
2018-01-13T07:18:56.854Z,33.95
2018-01-13T07:21:23.897Z,33.25
2018-01-13T07:23:50.748Z,35.45
2018-01-13T07:26:17.577Z,32.22
2018-01-13T07:28:44.632Z,32.88
2018-01-13T07:31:11.470Z,33.60
2018-01-13T07:33:38.634Z,35.15
2018-01-13T07:36:05.783Z,33.85
2018-01-13T07:38:32.646Z,34.95
2018-01-13T07:40:59.481Z,34.63
2018-01-13T07:43:26.297Z,34.30
2018-01-13T07:45:53.105Z,33.17
2018-01-13T07:48:19.941Z,33.90
2018-01-13T07:50:47.037Z,32.90
2018-01-13T07:53:13.890Z,33.50
2018-01-13T07:55:41.015Z,33.10
2018-01-13T07:58:07.882Z,32.80
2018-01-13T08:00:34.690Z,34.10
2018-01-13T08:03:01.562Z,36.70
2018-01-13T08:05:28.410Z,34.92
2018-01-13T08:07:55.221Z,34.92
2018-01-13T08:10:22.092Z,33.78
2018-01-13T08:12:49.143Z,35.00
2018-01-13T08:15:16.003Z,32.85
2018-01-13T08:17:43.136Z,34.85
2018-01-13T08:20:09.953Z,32.50
2018-01-13T08:22:37.126Z,34.08
2018-01-13T08:25:04.283Z,33.65
2018-01-13T08:27:31.124Z,34.92
2018-01-13T08:29:57.991Z,34.40
2018-01-13T08:32:24.854Z,33.67
2018-01-13T08:34:51.690Z,33.40
2018-01-13T08:37:18.499Z,33.42
2018-01-13T08:39:45.650Z,32.80
2018-01-13T08:42:12.689Z,34.50
2018-01-13T08:44:39.850Z,34.08
2018-01-13T08:47:06.722Z,34.17
2018-01-13T08:49:33.525Z,33.80
2018-01-13T08:52:00.688Z,34.25
2018-01-13T08:54:27.829Z,34.35
2018-01-13T08:56:54.674Z,35.47
2018-01-13T08:59:21.510Z,34.08
2018-01-13T09:01:48.371Z,34.35
2018-01-13T09:04:15.518Z,33.15
2018-01-13T09:06:42.557Z,33.10
2018-01-13T09:09:09.389Z,33.25
2018-01-13T09:11:36.554Z,34.20
2018-01-13T09:14:03.407Z,33.15
2018-01-13T09:16:30.541Z,33.10
2018-01-13T09:18:57.698Z,32.88
2018-01-13T09:21:24.509Z,32.10
2018-01-13T09:23:51.603Z,33.80
2018-01-13T09:26:18.738Z,32.53
2018-01-13T09:28:45.594Z,32.40
2018-01-13T09:31:12.433Z,30.93
2018-01-13T09:33:39.574Z,32.80
2018-01-13T09:36:06.421Z,32.65
2018-01-13T09:38:33.260Z,33.17
2018-01-13T09:41:00.074Z,32.88
2018-01-13T09:43:27.153Z,32.63
2018-01-13T09:45:54.060Z,33.63
2018-01-13T09:48:20.935Z,32.92
2018-01-13T09:50:47.745Z,53.53
2018-01-13T09:53:14.616Z,33.10
2018-01-13T09:55:41.681Z,33.10
2018-01-13T09:58:08.539Z,32.88
2018-01-13T10:00:35.422Z,31.40
2018-01-13T10:03:02.262Z,31.12
2018-01-13T10:05:29.103Z,30.20
2018-01-13T10:07:56.197Z,29.23
2018-01-13T10:10:23.051Z,29.05
2018-01-13T10:12:50.458Z,30.08
2018-01-13T10:15:17.330Z,29.58
2018-01-13T10:17:44.170Z,28.62
2018-01-13T10:20:10.981Z,28.75
2018-01-13T10:22:38.093Z,27.95
2018-01-13T10:25:04.930Z,27.80
2018-01-13T10:27:31.794Z,27.37
2018-01-13T10:29:58.670Z,27.17
2018-01-13T10:32:25.514Z,27.90
2018-01-13T10:34:52.704Z,26.40
2018-01-13T10:37:19.546Z,26.25
2018-01-13T10:39:46.693Z,26.48
2018-01-13T10:42:13.558Z,26.02
2018-01-13T10:44:40.381Z,25.62
2018-01-13T10:47:07.235Z,25.52
2018-01-13T10:49:34.075Z,23.85
2018-01-13T10:52:00.945Z,24.35
2018-01-13T10:54:27.769Z,26.50
2018-01-13T10:56:54.618Z,23.95
2018-01-13T10:59:21.479Z,23.42
2018-01-13T11:01:48.521Z,23.95
2018-01-13T11:04:15.374Z,22.40
2018-01-13T11:06:42.485Z,21.62
2018-01-13T11:09:09.358Z,22.67
2018-01-13T11:11:36.479Z,21.60
2018-01-13T11:14:03.343Z,20.65
2018-01-13T11:16:30.183Z,20.55
2018-01-13T11:18:57.311Z,19.98
2018-01-13T11:21:24.464Z,20.90
2018-01-13T11:23:51.281Z,21.08
2018-01-13T11:26:18.122Z,19.93
2018-01-13T11:28:44.953Z,19.80
2018-01-13T11:31:12.036Z,19.75
2018-01-13T11:33:38.877Z,19.40
2018-01-13T11:36:05.742Z,18.30
2018-01-13T11:38:32.879Z,19.23
2018-01-13T11:41:00.036Z,18.00
2018-01-13T11:43:26.911Z,17.08
2018-01-13T11:45:53.761Z,17.30
2018-01-13T11:48:20.861Z,17.33
2018-01-13T11:50:47.705Z,16.27
2018-01-13T11:53:14.525Z,16.48
2018-01-13T11:55:41.333Z,16.37
2018-01-13T11:58:08.201Z,17.35
2018-01-13T12:00:35.047Z,15.70
2018-01-13T12:03:01.873Z,16.00
2018-01-13T12:05:28.734Z,15.83
2018-01-13T12:07:55.570Z,15.07
2018-01-13T12:10:22.407Z,15.10
2018-01-13T12:12:49.270Z,14.90
2018-01-13T12:15:16.077Z,15.18
2018-01-13T12:17:43.190Z,14.15
2018-01-13T12:20:10.030Z,13.95
2018-01-13T12:22:37.177Z,13.68
2018-01-13T12:25:03.981Z,13.57
2018-01-13T12:27:30.813Z,14.07
2018-01-13T12:29:57.630Z,13.57
2018-01-13T12:32:24.437Z,13.75
2018-01-13T12:34:51.273Z,13.90
2018-01-13T12:37:18.447Z,13.10
2018-01-13T12:39:45.485Z,12.60
2018-01-13T12:42:12.637Z,12.13
2018-01-13T12:44:39.685Z,12.10
2018-01-13T12:47:06.779Z,11.80
2018-01-13T12:49:33.894Z,11.10
2018-01-13T12:52:00.949Z,10.95
2018-01-13T12:54:28.088Z,11.05
2018-01-13T12:56:54.958Z,10.13
2018-01-13T12:59:21.846Z,10.30
2018-01-13T13:01:48.921Z,10.20
2018-01-13T13:04:15.795Z,10.63
2018-01-13T13:06:42.919Z,10.25
2018-01-13T13:09:09.728Z,10.82
2018-01-13T13:11:36.916Z,10.98
2018-01-13T13:14:03.758Z,10.98
2018-01-13T13:16:30.913Z,10.80
2018-01-13T13:18:57.742Z,10.50
2018-01-13T13:21:24.554Z,10.60
2018-01-13T13:23:51.391Z,9.80
2018-01-13T13:26:18.250Z,10.20
2018-01-13T13:28:45.127Z,11.10
2018-01-13T13:31:12.050Z,10.80
2018-01-13T13:33:38.889Z,11.40
2018-01-13T13:36:05.724Z,10.77
2018-01-13T13:38:32.529Z,9.93
2018-01-13T13:40:59.637Z,10.80
2018-01-13T13:43:26.483Z,9.85
2018-01-13T13:45:53.285Z,8.90
2018-01-13T13:48:20.149Z,10.00
2018-01-13T13:50:46.996Z,9.20
2018-01-13T13:53:13.802Z,9.65
2018-01-13T13:55:40.670Z,9.43
2018-01-13T13:58:07.518Z,8.25
2018-01-13T14:00:34.358Z,8.60
2018-01-13T14:03:01.246Z,9.30
2018-01-13T14:05:28.090Z,9.05
2018-01-13T14:07:54.898Z,8.70
2018-01-13T14:10:22.066Z,9.23
2018-01-13T14:12:48.865Z,9.20
2018-01-13T14:15:15.673Z,8.80
2018-01-13T14:17:42.510Z,9.00
2018-01-13T14:20:09.358Z,8.73
2018-01-13T14:22:36.194Z,8.73
2018-01-13T14:25:03.063Z,9.20
2018-01-13T14:27:30.179Z,8.77
2018-01-13T14:29:56.985Z,22.05
2018-01-13T14:32:23.829Z,10.65
2018-01-13T14:34:51.010Z,9.90
2018-01-13T14:37:17.824Z,9.30
2018-01-13T14:39:44.675Z,9.55
2018-01-13T14:42:11.511Z,9.30
2018-01-13T14:44:38.347Z,8.75
2018-01-13T14:47:05.177Z,9.55
2018-01-13T14:49:32.018Z,9.38
2018-01-13T14:51:58.854Z,10.82
2018-01-13T14:54:25.966Z,10.25
2018-01-13T14:56:53.110Z,12.70
2018-01-13T14:59:19.954Z,10.63
2018-01-13T15:01:46.781Z,9.80
2018-01-13T15:04:13.714Z,10.40
2018-01-13T15:06:40.546Z,9.95
2018-01-13T15:09:07.443Z,10.65
2018-01-13T15:11:34.687Z,9.95
2018-01-13T15:14:01.531Z,10.45
2018-01-13T15:16:28.367Z,9.93
2018-01-13T15:18:55.181Z,10.35
2018-01-13T15:21:21.997Z,24.80
2018-01-13T15:23:48.829Z,11.50
2018-01-13T15:26:15.653Z,13.30
2018-01-13T15:28:42.464Z,10.70
2018-01-13T15:31:09.306Z,12.02
2018-01-13T15:33:36.114Z,13.25
2018-01-13T15:36:02.927Z,12.20
2018-01-13T15:38:29.981Z,11.70
2018-01-13T15:40:56.827Z,11.25
2018-01-13T15:43:23.641Z,12.52
2018-01-13T15:45:50.794Z,12.87
2018-01-13T15:48:17.638Z,12.60
2018-01-13T15:50:44.470Z,13.10
2018-01-13T15:53:11.324Z,14.18
2018-01-13T15:55:38.138Z,12.27
2018-01-13T15:58:04.978Z,11.03
2018-01-13T16:00:31.846Z,11.40
2018-01-13T16:02:58.653Z,11.00
2018-01-13T16:05:25.482Z,11.02
2018-01-13T16:07:53.451Z,11.63
2018-01-13T16:10:20.288Z,10.80
2018-01-13T16:12:47.398Z,10.88
2018-01-13T16:15:14.563Z,10.90
2018-01-13T16:17:41.698Z,11.48
2018-01-13T16:20:08.552Z,10.90
2018-01-13T16:22:35.690Z,10.85
2018-01-13T16:25:02.738Z,11.20
2018-01-13T16:27:29.885Z,11.82
2018-01-13T16:29:57.042Z,11.75
2018-01-13T16:32:24.199Z,11.10
2018-01-13T16:34:51.039Z,11.52
2018-01-13T16:37:17.920Z,11.38
2018-01-13T16:39:44.730Z,11.02
2018-01-13T16:42:11.573Z,11.48
2018-01-13T16:44:38.714Z,10.70
2018-01-13T16:47:05.564Z,11.55
2018-01-13T16:49:32.398Z,11.65
2018-01-13T16:51:59.456Z,11.50
2018-01-13T16:54:26.301Z,11.10
2018-01-13T16:56:53.130Z,10.95
2018-01-13T16:59:19.994Z,11.45
2018-01-13T17:01:47.125Z,10.90
2018-01-13T17:04:13.979Z,10.50
2018-01-13T17:06:40.822Z,10.15
2018-01-13T17:09:07.671Z,11.20
2018-01-13T17:11:34.490Z,11.12
2018-01-13T17:14:01.364Z,10.70
2018-01-13T17:16:28.194Z,10.55
2018-01-13T17:18:55.043Z,10.63
2018-01-13T17:21:21.919Z,11.55
2018-01-13T17:23:48.754Z,10.77
2018-01-13T17:26:15.561Z,11.00
2018-01-13T17:28:42.409Z,11.10
2018-01-13T17:31:09.217Z,10.40
2018-01-13T17:33:36.044Z,10.43
2018-01-13T17:36:02.907Z,11.10
2018-01-13T17:38:29.716Z,11.10
2018-01-13T17:40:56.817Z,11.40
2018-01-13T17:43:23.690Z,11.60
2018-01-13T17:45:50.500Z,12.10
2018-01-13T17:48:17.327Z,11.88
2018-01-13T17:50:44.502Z,12.02
2018-01-13T17:53:11.653Z,12.40
2018-01-13T17:55:38.498Z,11.50
2018-01-13T17:58:05.646Z,11.15
2018-01-13T18:00:32.470Z,11.12
2018-01-13T18:02:59.359Z,10.60
2018-01-13T18:05:26.206Z,11.80
2018-01-13T18:07:53.322Z,10.32
2018-01-13T18:10:20.174Z,10.93
2018-01-13T18:12:47.317Z,12.32
2018-01-13T18:15:14.367Z,11.53
2018-01-13T18:17:41.525Z,10.15
2018-01-13T18:20:08.414Z,10.20
2018-01-13T18:22:35.228Z,10.50
2018-01-13T18:25:02.074Z,10.65
2018-01-13T18:27:28.916Z,11.20
2018-01-13T18:29:56.038Z,10.07
2018-01-13T18:32:23.209Z,10.48
2018-01-13T18:34:50.337Z,10.40
2018-01-13T18:37:17.146Z,10.00
2018-01-13T18:39:44.002Z,8.50
2018-01-13T18:42:11.070Z,9.00
2018-01-13T18:44:37.927Z,8.82
2018-01-13T18:47:04.732Z,8.52
2018-01-13T18:49:31.598Z,8.75
2018-01-13T18:51:58.430Z,9.30
2018-01-13T18:54:25.259Z,9.60
2018-01-13T18:56:52.089Z,9.47
2018-01-13T18:59:18.896Z,9.07
2018-01-13T19:01:45.739Z,9.82
2018-01-13T19:04:12.561Z,9.23
2018-01-13T19:06:39.393Z,9.30
2018-01-13T19:09:06.556Z,8.80
2018-01-13T19:11:33.392Z,9.20
2018-01-13T19:14:00.441Z,9.00
2018-01-13T19:16:27.282Z,9.00
2018-01-13T19:18:54.113Z,8.43
2018-01-13T19:21:20.955Z,8.40
2018-01-13T19:23:47.786Z,8.10
2018-01-13T19:26:14.609Z,9.00
2018-01-13T19:28:41.705Z,9.02
2018-01-13T19:31:08.859Z,9.17
2018-01-13T19:33:35.723Z,8.93
2018-01-13T19:36:02.563Z,9.10
2018-01-13T19:38:29.375Z,8.63
2018-01-13T19:40:56.546Z,9.10
2018-01-13T19:43:23.700Z,8.73
2018-01-13T19:45:50.534Z,8.93
2018-01-13T19:48:17.366Z,9.68
2018-01-13T19:50:44.210Z,8.60
2018-01-13T19:53:11.265Z,8.50
2018-01-13T19:55:38.102Z,8.70
2018-01-13T19:58:04.919Z,9.00
2018-01-13T20:00:31.749Z,8.68
2018-01-13T20:02:58.841Z,8.60
2018-01-13T20:05:25.702Z,8.68
2018-01-13T20:07:52.545Z,8.27
2018-01-13T20:10:19.388Z,9.00
2018-01-13T20:12:46.193Z,9.90
2018-01-13T20:15:13.275Z,9.52
2018-01-13T20:17:40.140Z,9.38
2018-01-13T20:20:06.974Z,9.70
2018-01-13T20:22:33.963Z,9.60
2018-01-13T20:25:00.817Z,9.98
2018-01-13T20:27:27.885Z,9.70
2018-01-13T20:29:54.703Z,9.63
2018-01-13T20:32:21.777Z,10.13
2018-01-13T20:34:48.825Z,10.57
2018-01-13T20:37:15.641Z,10.10
2018-01-13T20:39:42.506Z,9.57
2018-01-13T20:42:09.309Z,9.70
2018-01-13T20:44:36.410Z,9.80
2018-01-13T20:47:03.275Z,10.10
2018-01-13T20:49:30.118Z,9.88
2018-01-13T20:51:56.923Z,10.07
2018-01-13T20:54:24.089Z,9.87
2018-01-13T20:56:51.240Z,10.70
2018-01-13T20:59:18.054Z,10.85
2018-01-13T21:01:44.913Z,10.40
2018-01-13T21:04:11.782Z,10.68
2018-01-13T21:06:38.602Z,10.85
2018-01-13T21:09:05.866Z,10.80
2018-01-13T21:11:32.680Z,10.70
2018-01-13T21:13:59.757Z,11.23
2018-01-13T21:16:26.588Z,10.82
2018-01-13T21:18:53.432Z,10.60
2018-01-13T21:21:20.594Z,11.52
2018-01-13T21:23:47.462Z,11.33
2018-01-13T21:26:14.276Z,11.20
2018-01-13T21:28:41.089Z,11.27
2018-01-13T21:31:07.969Z,11.80
2018-01-13T21:33:34.819Z,11.32
2018-01-13T21:36:01.958Z,11.57
2018-01-13T21:38:29.110Z,11.77
2018-01-13T21:40:56.258Z,11.80
2018-01-13T21:43:23.132Z,11.93
2018-01-13T21:45:50.356Z,12.05
2018-01-13T21:48:17.191Z,13.10
2018-01-13T21:50:44.034Z,12.35
2018-01-13T21:53:10.926Z,11.77
2018-01-13T21:55:37.769Z,12.50
2018-01-13T21:58:04.882Z,12.60
2018-01-13T22:00:31.750Z,12.90
2018-01-13T22:02:58.585Z,12.23
2018-01-13T22:05:25.389Z,12.27
2018-01-13T22:07:52.225Z,11.98
2018-01-13T22:10:19.293Z,12.85
2018-01-13T22:12:46.445Z,12.33
2018-01-13T22:15:13.311Z,12.80
2018-01-13T22:17:40.137Z,12.57
2018-01-13T22:20:06.938Z,12.93
2018-01-13T22:22:34.021Z,12.60
2018-01-13T22:25:00.863Z,11.93
2018-01-13T22:27:27.707Z,12.37
2018-01-13T22:29:54.553Z,12.32
2018-01-13T22:32:21.707Z,12.37
2018-01-13T22:34:48.524Z,11.90
2018-01-13T22:37:15.410Z,10.90
2018-01-13T22:39:42.543Z,10.13
2018-01-13T22:42:10.229Z,10.50
2018-01-13T22:44:37.351Z,10.32
2018-01-13T22:47:04.195Z,10.52
2018-01-13T22:49:30.993Z,10.40
2018-01-13T22:51:57.829Z,11.18
2018-01-13T22:54:24.641Z,11.20
2018-01-13T22:56:51.491Z,10.70
2018-01-13T22:59:18.352Z,10.90
2018-01-13T23:01:45.202Z,11.05
2018-01-13T23:04:12.015Z,11.05
2018-01-13T23:06:38.855Z,11.00
2018-01-13T23:09:05.938Z,11.65
2018-01-13T23:11:32.774Z,12.00
2018-01-13T23:13:59.656Z,11.82
2018-01-13T23:16:26.500Z,12.00
2018-01-13T23:18:53.364Z,12.82
2018-01-13T23:21:20.189Z,12.50
2018-01-13T23:23:47.055Z,14.13
2018-01-13T23:26:14.197Z,13.50
2018-01-13T23:28:41.281Z,13.80
2018-01-13T23:31:08.091Z,14.20
2018-01-13T23:33:34.898Z,14.10
2018-01-13T23:36:02.086Z,14.03
2018-01-13T23:38:28.893Z,14.48
2018-01-13T23:40:55.743Z,14.30
2018-01-13T23:43:22.573Z,13.27
2018-01-13T23:45:49.418Z,13.88
2018-01-13T23:48:16.241Z,13.93
2018-01-13T23:50:43.216Z,14.40
2018-01-13T23:53:10.021Z,13.85
2018-01-13T23:55:36.825Z,13.60
2018-01-13T23:58:03.889Z,12.67
